Portada
METAR-TAF:

METAR-TAF

Aeroports :

Tsingtao, Xina

latitud: 36-04N, longitud: 120-20E, altitud: 77 m

Observació

L'informe es va fer fa 32 minuts, a les 16:00 UTC
Vent 6 kt del Nord-Est, variant entre Nord i Est
Temperatura 22°C
Humitat 65%
Pressió 1016 hPa
Visibilitat 10 km o més
sense núvols per sota de 1500 mi sense presència de cumulonimbus.

METAR: ZSQD 161600Z 05003MPS 360V080 CAVOK 22/15 Q1016 NOSIG

Hora: 00:32 (16:32 UTC)

Pronòstic

L'informe es va fer fa 7 hores i 22 minuts, a les 09:10 UTC
Pronòstic vàlid del 16 a les 12 UTC al 17 a les 12 UTC
Vent 10 kt del Nord
Visibilitat 10 km o més
sense núvols per sota de 1500 mi sense presència de cumulonimbus.
Temporalment
l' 17 a les 05 UTC al 17 a les 09 UTC
Vent 8 kt del Sud

TAF: ZSQD 160910Z 1612/1712 35005MPS CAVOK TX30/1706Z TN17/1621Z TEMPO 1705/1709 17004MPS

Observacions i pronòstics meteorològics de més de 4000 aeroports (METAR i TAF).

Les estacions disponibles són els punts grocs i vermells al mapa.

Posi el ratolí al punt desitjat per veure el nom de l'estació.

Feu clic per veure les observacions i els pronòstics meteorològics.

Per canviar el mapa: feu clic els botons verds amb una creu de color negre per apropar; al botó verd amb un guió per allunyar la imatge; o en les fletxes verdes per a mapes adjacents.


METAR-TAF: